Christopher Trim 50x100m/0:20r row

5,000

Meters

22:08.1

Time

2:12.8

Pace

281

Calories

Rest Distance692
Rest Time16:40.0
Overall Distance5,692
Overall Time38:48.1
Average Watts149
Calories Per Hour814
Stroke Rate22
Stroke Count509
Drag Factor97

May 04, 2026 09:23:00

Workout
RowErg

Workout Type
Interval:Distance

Weight Class
Hwt

Verified
Yes

Entered
ErgData iOS

Intervals

Time Meters Pace Watts Cal/Hr S/M
22:08.1 5,000 2:12.8 149 814 22
0:28.1 100 2:20.5 126 734 23
0:28.1 100 2:20.5 126 734 21
0:27.7 100 2:18.5 132 753 24
0:26.9 100 2:14.5 144 795 25
0:27.3 100 2:16.5 138 773 22
0:27.3 100 2:16.5 138 773 24
0:27.2 100 2:16.0 139 778 22
0:27.0 100 2:15.0 142 789 22
0:26.5 100 2:12.5 150 817 23
0:26.8 100 2:14.0 145 800 22
0:26.7 100 2:13.5 147 806 22
0:26.6 100 2:13.0 149 812 23
0:26.8 100 2:14.0 145 800 22
0:26.4 100 2:12.0 152 823 23
0:26.9 100 2:14.5 144 795 22
0:26.7 100 2:13.5 147 806 22
0:27.1 100 2:15.5 141 784 22
0:26.3 100 2:11.5 154 829 23
0:26.6 100 2:13.0 149 812 23
0:26.4 100 2:12.0 152 823 23
0:26.4 100 2:12.0 152 823 23
0:26.6 100 2:13.0 149 812 23
0:26.4 100 2:12.0 152 823 23
0:26.3 100 2:11.5 154 829 23
0:27.0 100 2:15.0 142 789 22
0:26.4 100 2:12.0 152 823 23
0:26.4 100 2:12.0 152 823 23
0:26.4 100 2:12.0 152 823 23
0:26.5 100 2:12.5 150 817 23
0:25.9 100 2:09.5 161 854 25
0:26.2 100 2:11.0 156 835 23
0:26.3 100 2:11.5 154 829 23
0:25.9 100 2:09.5 161 854 23
0:26.3 100 2:11.5 154 829 23
0:26.2 100 2:11.0 156 835 23
0:26.0 100 2:10.0 159 848 23
0:26.3 100 2:11.5 154 829 23
0:26.4 100 2:12.0 152 823 23
0:26.5 100 2:12.5 150 817 23
0:26.2 100 2:11.0 156 835 23
0:26.3 100 2:11.5 154 829 23
0:26.4 100 2:12.0 152 823 23
0:26.0 100 2:10.0 159 848 23
0:26.0 100 2:10.0 159 848 23
0:26.2 100 2:11.0 156 835 23
0:25.8 100 2:09.0 163 861 23
0:26.4 100 2:12.0 152 823 20
0:25.5 100 2:07.5 169 881 23
0:26.4 100 2:12.0 152 823 23
0:27.0 100 2:15.0 142 789 22
r692

Click on an interval to see the workout graph.

Click and drag on the graph to zoom in on a section.

Workout Graph

Loading data.